sensor_id;sensor_type;location;lat;lon;timestamp;temperature;humidity
1948;DHT22;974;52.400;9.818;2023-08-07T00:00:42;15.90;99.90
1948;DHT22;974;52.400;9.818;2023-08-07T00:03:08;15.90;99.90
1948;DHT22;974;52.400;9.818;2023-08-07T00:05:33;15.90;99.90
1948;DHT22;974;52.400;9.818;2023-08-07T00:07:59;15.90;99.90
1948;DHT22;974;52.400;9.818;2023-08-07T00:10:25;15.90;99.90
1948;DHT22;974;52.400;9.818;2023-08-07T00:12:50;15.80;99.90
1948;DHT22;974;52.400;9.818;2023-08-07T00:15:16;15.80;99.90
1948;DHT22;974;52.400;9.818;2023-08-07T00:17:41;15.80;99.90
1948;DHT22;974;52.400;9.818;2023-08-07T00:20:10;15.80;99.90
1948;DHT22;974;52.400;9.818;2023-08-07T00:22:36;15.80;99.90
1948;DHT22;974;52.400;9.818;2023-08-07T00:25:01;15.70;99.90
1948;DHT22;974;52.400;9.818;2023-08-07T00:27:27;15.70;99.90
1948;DHT22;974;52.400;9.818;2023-08-07T00:29:53;15.70;99.90
1948;DHT22;974;52.400;9.818;2023-08-07T00:32:19;15.70;99.90
1948;DHT22;974;52.400;9.818;2023-08-07T00:34:44;15.70;99.90
1948;DHT22;974;52.400;9.818;2023-08-07T00:37:10;15.70;99.90
1948;DHT22;974;52.400;9.818;2023-08-07T00:39:35;15.70;99.90
1948;DHT22;974;52.400;9.818;2023-08-07T00:42:01;15.60;99.90
1948;DHT22;974;52.400;9.818;2023-08-07T00:44:26;15.60;99.90
1948;DHT22;974;52.400;9.818;2023-08-07T00:46:52;15.60;99.90
1948;DHT22;974;52.400;9.818;2023-08-07T00:49:18;15.60;99.90
1948;DHT22;974;52.400;9.818;2023-08-07T00:51:45;15.50;99.90
1948;DHT22;974;52.400;9.818;2023-08-07T00:54:12;15.50;99.90
1948;DHT22;974;52.400;9.818;2023-08-07T00:56:40;15.60;99.90
1948;DHT22;974;52.400;9.818;2023-08-07T00:59:05;15.50;99.90
1948;DHT22;974;52.400;9.818;2023-08-07T01:01:31;15.50;99.90
1948;DHT22;974;52.400;9.818;2023-08-07T01:03:57;15.50;99.90
1948;DHT22;974;52.400;9.818;2023-08-07T01:06:22;15.50;99.90
1948;DHT22;974;52.400;9.818;2023-08-07T01:08:48;15.40;99.90
1948;DHT22;974;52.400;9.818;2023-08-07T01:11:39;15.40;99.90
1948;DHT22;974;52.400;9.818;2023-08-07T01:14:26;15.40;99.90
1948;DHT22;974;52.400;9.818;2023-08-07T01:17:09;15.40;99.90
1948;DHT22;974;52.400;9.818;2023-08-07T01:19:36;15.40;99.90
1948;DHT22;974;52.400;9.818;2023-08-07T01:24:34;15.30;99.90
1948;DHT22;974;52.400;9.818;2023-08-07T01:27:24;15.30;99.90
1948;DHT22;974;52.400;9.818;2023-08-07T01:30:09;15.30;99.90
1948;DHT22;974;52.400;9.818;2023-08-07T01:35:41;15.30;99.90
1948;DHT22;974;52.400;9.818;2023-08-07T01:38:08;15.40;99.90
1948;DHT22;974;52.400;9.818;2023-08-07T01:40:34;15.40;99.90
1948;DHT22;974;52.400;9.818;2023-08-07T01:43:01;15.30;99.90
1948;DHT22;974;52.400;9.818;2023-08-07T01:45:30;15.30;99.90
1948;DHT22;974;52.400;9.818;2023-08-07T01:47:55;15.30;99.90
1948;DHT22;974;52.400;9.818;2023-08-07T01:50:23;15.30;99.90
1948;DHT22;974;52.400;9.818;2023-08-07T01:52:49;15.30;99.90
1948;DHT22;974;52.400;9.818;2023-08-07T01:55:19;15.20;99.90
1948;DHT22;974;52.400;9.818;2023-08-07T01:57:45;15.20;99.90
1948;DHT22;974;52.400;9.818;2023-08-07T02:00:11;15.20;99.90
1948;DHT22;974;52.400;9.818;2023-08-07T02:02:37;15.20;99.90
1948;DHT22;974;52.400;9.818;2023-08-07T02:05:03;15.10;99.90
1948;DHT22;974;52.400;9.818;2023-08-07T02:07:29;15.10;99.90
1948;DHT22;974;52.400;9.818;2023-08-07T02:09:55;15.10;99.90
1948;DHT22;974;52.400;9.818;2023-08-07T02:12:20;15.20;99.90
1948;DHT22;974;52.400;9.818;2023-08-07T02:14:46;15.10;99.90
1948;DHT22;974;52.400;9.818;2023-08-07T02:17:11;15.10;99.90
1948;DHT22;974;52.400;9.818;2023-08-07T02:19:37;15.10;99.90
1948;DHT22;974;52.400;9.818;2023-08-07T02:22:03;15.00;99.90
1948;DHT22;974;52.400;9.818;2023-08-07T02:24:28;15.00;99.90
1948;DHT22;974;52.400;9.818;2023-08-07T02:26:54;15.10;99.90
1948;DHT22;974;52.400;9.818;2023-08-07T02:29:22;15.10;99.90
1948;DHT22;974;52.400;9.818;2023-08-07T02:31:48;15.00;99.90
1948;DHT22;974;52.400;9.818;2023-08-07T02:36:41;15.00;99.90
1948;DHT22;974;52.400;9.818;2023-08-07T02:39:07;15.00;99.90
1948;DHT22;974;52.400;9.818;2023-08-07T02:41:32;15.00;99.90
1948;DHT22;974;52.400;9.818;2023-08-07T02:43:58;14.90;99.90
1948;DHT22;974;52.400;9.818;2023-08-07T02:46:23;14.90;99.90
1948;DHT22;974;52.400;9.818;2023-08-07T02:48:49;14.90;99.90
1948;DHT22;974;52.400;9.818;2023-08-07T02:51:14;14.80;99.90
1948;DHT22;974;52.400;9.818;2023-08-07T02:53:46;14.80;99.90
1948;DHT22;974;52.400;9.818;2023-08-07T02:56:12;14.80;99.90
1948;DHT22;974;52.400;9.818;2023-08-07T02:58:40;14.80;99.90
1948;DHT22;974;52.400;9.818;2023-08-07T03:01:06;14.80;99.90
1948;DHT22;974;52.400;9.818;2023-08-07T03:03:32;14.80;99.90
1948;DHT22;974;52.400;9.818;2023-08-07T03:05:58;14.80;99.90
1948;DHT22;974;52.400;9.818;2023-08-07T03:08:23;14.70;99.90
1948;DHT22;974;52.400;9.818;2023-08-07T03:10:53;14.80;99.90
1948;DHT22;974;52.400;9.818;2023-08-07T03:13:19;14.80;99.90
1948;DHT22;974;52.400;9.818;2023-08-07T03:15:44;14.80;99.90
1948;DHT22;974;52.400;9.818;2023-08-07T03:18:10;14.80;99.90
1948;DHT22;974;52.400;9.818;2023-08-07T03:20:37;14.80;99.90
1948;DHT22;974;52.400;9.818;2023-08-07T03:23:02;14.80;99.90
1948;DHT22;974;52.400;9.818;2023-08-07T03:25:28;14.80;99.90
1948;DHT22;974;52.400;9.818;2023-08-07T03:27:53;14.80;99.90
1948;DHT22;974;52.400;9.818;2023-08-07T03:30:19;14.80;99.90
1948;DHT22;974;52.400;9.818;2023-08-07T03:32:50;14.80;99.90
1948;DHT22;974;52.400;9.818;2023-08-07T03:35:16;14.80;99.90
1948;DHT22;974;52.400;9.818;2023-08-07T03:37:41;14.80;99.90
1948;DHT22;974;52.400;9.818;2023-08-07T03:40:07;14.80;99.90
1948;DHT22;974;52.400;9.818;2023-08-07T03:42:33;14.80;99.90
1948;DHT22;974;52.400;9.818;2023-08-07T03:44:58;14.80;99.90
1948;DHT22;974;52.400;9.818;2023-08-07T03:47:24;14.80;99.90
1948;DHT22;974;52.400;9.818;2023-08-07T03:49:49;14.80;99.90
1948;DHT22;974;52.400;9.818;2023-08-07T03:52:15;14.80;99.90
1948;DHT22;974;52.400;9.818;2023-08-07T03:54:40;14.80;99.90
1948;DHT22;974;52.400;9.818;2023-08-07T03:57:06;14.80;99.90
1948;DHT22;974;52.400;9.818;2023-08-07T03:59:36;14.80;99.90
1948;DHT22;974;52.400;9.818;2023-08-07T04:02:02;14.80;99.90
1948;DHT22;974;52.400;9.818;2023-08-07T04:04:27;14.90;99.90
1948;DHT22;974;52.400;9.818;2023-08-07T04:06:53;14.90;99.90
1948;DHT22;974;52.400;9.818;2023-08-07T04:09:18;14.90;99.90
1948;DHT22;974;52.400;9.818;2023-08-07T04:11:44;14.90;99.90
1948;DHT22;974;52.400;9.818;2023-08-07T04:14:10;14.80;99.90
1948;DHT22;974;52.400;9.818;2023-08-07T04:16:39;14.90;99.90
1948;DHT22;974;52.400;9.818;2023-08-07T04:19:05;14.90;99.90
1948;DHT22;974;52.400;9.818;2023-08-07T04:21:33;14.90;99.90
1948;DHT22;974;52.400;9.818;2023-08-07T04:23:59;14.90;99.90
1948;DHT22;974;52.400;9.818;2023-08-07T04:26:26;14.90;99.90
1948;DHT22;974;52.400;9.818;2023-08-07T04:28:51;14.90;99.90
1948;DHT22;974;52.400;9.818;2023-08-07T04:31:17;14.90;99.90
1948;DHT22;974;52.400;9.818;2023-08-07T04:33:42;14.90;99.90
1948;DHT22;974;52.400;9.818;2023-08-07T04:36:08;14.90;99.90
1948;DHT22;974;52.400;9.818;2023-08-07T04:38:33;14.90;99.90
1948;DHT22;974;52.400;9.818;2023-08-07T04:40:59;14.90;99.90
1948;DHT22;974;52.400;9.818;2023-08-07T04:43:24;14.90;99.90
1948;DHT22;974;52.400;9.818;2023-08-07T04:45:50;14.90;99.90
1948;DHT22;974;52.400;9.818;2023-08-07T04:48:16;14.90;99.90
1948;DHT22;974;52.400;9.818;2023-08-07T04:50:43;14.90;99.90
1948;DHT22;974;52.400;9.818;2023-08-07T04:53:08;15.00;99.90
1948;DHT22;974;52.400;9.818;2023-08-07T04:55:37;15.00;99.90
1948;DHT22;974;52.400;9.818;2023-08-07T04:58:09;15.00;99.90
1948;DHT22;974;52.400;9.818;2023-08-07T05:00:35;14.90;99.90
1948;DHT22;974;52.400;9.818;2023-08-07T05:03:01;14.90;99.90
1948;DHT22;974;52.400;9.818;2023-08-07T05:05:27;14.90;99.90
1948;DHT22;974;52.400;9.818;2023-08-07T05:07:54;15.00;99.90
1948;DHT22;974;52.400;9.818;2023-08-07T05:10:20;15.00;99.90
1948;DHT22;974;52.400;9.818;2023-08-07T05:12:46;15.00;99.90
1948;DHT22;974;52.400;9.818;2023-08-07T05:15:11;15.00;99.90
1948;DHT22;974;52.400;9.818;2023-08-07T05:17:37;15.00;99.90
1948;DHT22;974;52.400;9.818;2023-08-07T05:20:02;15.00;99.90
1948;DHT22;974;52.400;9.818;2023-08-07T05:22:29;15.00;99.90
1948;DHT22;974;52.400;9.818;2023-08-07T05:24:54;15.00;99.90
1948;DHT22;974;52.400;9.818;2023-08-07T05:27:20;15.00;99.90
1948;DHT22;974;52.400;9.818;2023-08-07T05:29:48;15.00;99.90
1948;DHT22;974;52.400;9.818;2023-08-07T05:32:14;15.00;99.90
1948;DHT22;974;52.400;9.818;2023-08-07T05:34:40;15.00;99.90
1948;DHT22;974;52.400;9.818;2023-08-07T05:37:06;15.00;99.90
1948;DHT22;974;52.400;9.818;2023-08-07T05:39:32;15.10;99.90
1948;DHT22;974;52.400;9.818;2023-08-07T05:41:58;15.00;99.90
1948;DHT22;974;52.400;9.818;2023-08-07T05:44:24;15.10;99.90
1948;DHT22;974;52.400;9.818;2023-08-07T05:46:50;15.10;99.90
1948;DHT22;974;52.400;9.818;2023-08-07T05:49:16;15.10;99.90
1948;DHT22;974;52.400;9.818;2023-08-07T05:51:42;15.10;99.90
1948;DHT22;974;52.400;9.818;2023-08-07T05:54:10;15.10;99.90
1948;DHT22;974;52.400;9.818;2023-08-07T05:56:40;15.10;99.90
1948;DHT22;974;52.400;9.818;2023-08-07T05:59:06;15.00;99.90
1948;DHT22;974;52.400;9.818;2023-08-07T06:01:31;15.00;99.90
1948;DHT22;974;52.400;9.818;2023-08-07T06:03:57;15.00;99.90
1948;DHT22;974;52.400;9.818;2023-08-07T06:06:24;15.10;99.90
1948;DHT22;974;52.400;9.818;2023-08-07T06:08:50;15.10;99.90
1948;DHT22;974;52.400;9.818;2023-08-07T06:11:16;15.10;99.90
1948;DHT22;974;52.400;9.818;2023-08-07T06:13:44;15.10;99.90
1948;DHT22;974;52.400;9.818;2023-08-07T06:16:12;15.10;99.90
1948;DHT22;974;52.400;9.818;2023-08-07T06:18:38;15.10;99.90
1948;DHT22;974;52.400;9.818;2023-08-07T06:21:04;15.10;99.90
1948;DHT22;974;52.400;9.818;2023-08-07T06:23:36;15.10;99.90
1948;DHT22;974;52.400;9.818;2023-08-07T06:26:02;15.20;99.90
1948;DHT22;974;52.400;9.818;2023-08-07T06:28:32;15.20;99.90
1948;DHT22;974;52.400;9.818;2023-08-07T06:31:08;15.20;99.90
1948;DHT22;974;52.400;9.818;2023-08-07T06:33:34;15.10;99.90
1948;DHT22;974;52.400;9.818;2023-08-07T06:36:00;15.10;99.90
1948;DHT22;974;52.400;9.818;2023-08-07T06:38:26;15.20;99.90
1948;DHT22;974;52.400;9.818;2023-08-07T06:40:52;15.20;99.90
1948;DHT22;974;52.400;9.818;2023-08-07T06:43:17;15.20;99.90
1948;DHT22;974;52.400;9.818;2023-08-07T06:45:43;15.30;99.90
1948;DHT22;974;52.400;9.818;2023-08-07T06:48:09;15.30;99.90
1948;DHT22;974;52.400;9.818;2023-08-07T06:50:34;15.40;99.90
1948;DHT22;974;52.400;9.818;2023-08-07T06:53:00;15.40;99.90
1948;DHT22;974;52.400;9.818;2023-08-07T06:55:25;15.50;99.90
1948;DHT22;974;52.400;9.818;2023-08-07T06:57:51;15.50;99.90
1948;DHT22;974;52.400;9.818;2023-08-07T07:00:17;15.50;99.90
1948;DHT22;974;52.400;9.818;2023-08-07T07:02:42;15.50;99.90
1948;DHT22;974;52.400;9.818;2023-08-07T07:05:11;15.50;99.90
1948;DHT22;974;52.400;9.818;2023-08-07T07:07:36;15.50;99.90
1948;DHT22;974;52.400;9.818;2023-08-07T07:10:02;15.50;99.90
1948;DHT22;974;52.400;9.818;2023-08-07T07:12:28;15.50;99.90
1948;DHT22;974;52.400;9.818;2023-08-07T07:14:53;15.60;99.90
1948;DHT22;974;52.400;9.818;2023-08-07T07:17:19;15.60;99.90
1948;DHT22;974;52.400;9.818;2023-08-07T07:19:47;15.60;99.90
1948;DHT22;974;52.400;9.818;2023-08-07T07:22:13;15.70;99.90
1948;DHT22;974;52.400;9.818;2023-08-07T07:24:39;15.70;99.90
1948;DHT22;974;52.400;9.818;2023-08-07T07:27:07;15.80;99.90
1948;DHT22;974;52.400;9.818;2023-08-07T07:29:33;15.80;99.90
1948;DHT22;974;52.400;9.818;2023-08-07T07:31:58;15.90;99.90
1948;DHT22;974;52.400;9.818;2023-08-07T07:34:24;15.90;99.90
1948;DHT22;974;52.400;9.818;2023-08-07T07:36:49;15.90;99.90
1948;DHT22;974;52.400;9.818;2023-08-07T07:39:16;15.90;99.90
1948;DHT22;974;52.400;9.818;2023-08-07T07:41:41;15.90;99.90
1948;DHT22;974;52.400;9.818;2023-08-07T07:44:07;16.00;99.90
1948;DHT22;974;52.400;9.818;2023-08-07T07:46:32;15.90;99.90
1948;DHT22;974;52.400;9.818;2023-08-07T07:48:58;16.00;99.90
1948;DHT22;974;52.400;9.818;2023-08-07T07:51:24;16.00;99.90
1948;DHT22;974;52.400;9.818;2023-08-07T07:53:50;16.00;99.90
1948;DHT22;974;52.400;9.818;2023-08-07T07:56:16;16.00;99.90
1948;DHT22;974;52.400;9.818;2023-08-07T07:58:41;16.10;99.90
1948;DHT22;974;52.400;9.818;2023-08-07T08:01:07;16.20;99.90
1948;DHT22;974;52.400;9.818;2023-08-07T08:03:36;16.20;99.90
1948;DHT22;974;52.400;9.818;2023-08-07T08:06:02;16.30;99.90
1948;DHT22;974;52.400;9.818;2023-08-07T08:08:27;16.40;99.90
1948;DHT22;974;52.400;9.818;2023-08-07T08:10:53;16.40;99.90
1948;DHT22;974;52.400;9.818;2023-08-07T08:13:18;16.50;99.90
1948;DHT22;974;52.400;9.818;2023-08-07T08:15:45;16.60;99.90
1948;DHT22;974;52.400;9.818;2023-08-07T08:18:14;16.50;99.90
1948;DHT22;974;52.400;9.818;2023-08-07T08:20:39;16.60;99.90
1948;DHT22;974;52.400;9.818;2023-08-07T08:23:05;16.50;99.90
1948;DHT22;974;52.400;9.818;2023-08-07T08:25:31;16.50;99.90
1948;DHT22;974;52.400;9.818;2023-08-07T08:27:58;16.50;99.90
1948;DHT22;974;52.400;9.818;2023-08-07T08:30:27;16.40;99.90
1948;DHT22;974;52.400;9.818;2023-08-07T08:32:53;16.40;99.90
1948;DHT22;974;52.400;9.818;2023-08-07T08:35:19;16.40;99.90
1948;DHT22;974;52.400;9.818;2023-08-07T08:37:44;16.30;99.90
1948;DHT22;974;52.400;9.818;2023-08-07T08:40:13;16.30;99.90
1948;DHT22;974;52.400;9.818;2023-08-07T08:42:43;16.30;99.90
1948;DHT22;974;52.400;9.818;2023-08-07T08:45:12;16.40;99.90
1948;DHT22;974;52.400;9.818;2023-08-07T08:47:39;16.30;99.90
1948;DHT22;974;52.400;9.818;2023-08-07T08:50:10;16.50;99.90
1948;DHT22;974;52.400;9.818;2023-08-07T08:52:42;16.60;99.90
1948;DHT22;974;52.400;9.818;2023-08-07T08:55:10;16.60;99.90
1948;DHT22;974;52.400;9.818;2023-08-07T08:57:37;16.50;99.90
1948;DHT22;974;52.400;9.818;2023-08-07T09:00:07;16.40;99.90
1948;DHT22;974;52.400;9.818;2023-08-07T09:02:42;16.10;99.90
1948;DHT22;974;52.400;9.818;2023-08-07T09:05:08;15.80;99.90
1948;DHT22;974;52.400;9.818;2023-08-07T09:07:35;15.70;99.90
1948;DHT22;974;52.400;9.818;2023-08-07T09:10:02;15.60;99.90
1948;DHT22;974;52.400;9.818;2023-08-07T09:12:38;15.50;99.90
1948;DHT22;974;52.400;9.818;2023-08-07T09:15:11;15.40;99.90
1948;DHT22;974;52.400;9.818;2023-08-07T09:17:40;15.40;99.90
1948;DHT22;974;52.400;9.818;2023-08-07T09:20:09;15.30;99.90
1948;DHT22;974;52.400;9.818;2023-08-07T09:22:39;15.30;99.90
1948;DHT22;974;52.400;9.818;2023-08-07T09:25:05;15.40;99.90
1948;DHT22;974;52.400;9.818;2023-08-07T09:27:31;15.50;99.90
1948;DHT22;974;52.400;9.818;2023-08-07T09:29:57;15.60;99.90
1948;DHT22;974;52.400;9.818;2023-08-07T09:32:23;15.70;99.90
1948;DHT22;974;52.400;9.818;2023-08-07T09:34:50;15.60;99.90
1948;DHT22;974;52.400;9.818;2023-08-07T09:37:17;15.60;99.90
1948;DHT22;974;52.400;9.818;2023-08-07T09:39:42;15.60;99.90
1948;DHT22;974;52.400;9.818;2023-08-07T09:42:15;15.70;99.90
1948;DHT22;974;52.400;9.818;2023-08-07T09:44:41;15.80;99.90
1948;DHT22;974;52.400;9.818;2023-08-07T09:47:16;15.90;99.90
1948;DHT22;974;52.400;9.818;2023-08-07T09:49:43;16.00;99.90
1948;DHT22;974;52.400;9.818;2023-08-07T09:52:10;16.10;99.90
1948;DHT22;974;52.400;9.818;2023-08-07T09:54:36;16.20;99.90
1948;DHT22;974;52.400;9.818;2023-08-07T09:57:03;16.20;99.90
1948;DHT22;974;52.400;9.818;2023-08-07T09:59:28;16.30;99.90
1948;DHT22;974;52.400;9.818;2023-08-07T10:01:57;16.20;99.90
1948;DHT22;974;52.400;9.818;2023-08-07T10:04:23;16.10;99.90
1948;DHT22;974;52.400;9.818;2023-08-07T10:06:53;16.00;99.90
1948;DHT22;974;52.400;9.818;2023-08-07T10:09:21;16.00;99.90
1948;DHT22;974;52.400;9.818;2023-08-07T10:11:49;15.90;99.90
1948;DHT22;974;52.400;9.818;2023-08-07T10:14:15;16.00;99.90
1948;DHT22;974;52.400;9.818;2023-08-07T10:16:41;16.00;99.90
1948;DHT22;974;52.400;9.818;2023-08-07T10:19:10;16.10;99.90
1948;DHT22;974;52.400;9.818;2023-08-07T10:21:38;16.00;99.90
1948;DHT22;974;52.400;9.818;2023-08-07T10:24:05;16.10;99.90
1948;DHT22;974;52.400;9.818;2023-08-07T10:26:33;16.30;99.90
1948;DHT22;974;52.400;9.818;2023-08-07T10:29:01;16.30;99.90
1948;DHT22;974;52.400;9.818;2023-08-07T10:31:27;16.30;99.90
1948;DHT22;974;52.400;9.818;2023-08-07T10:33:54;16.20;99.90
1948;DHT22;974;52.400;9.818;2023-08-07T10:36:19;16.20;99.90
1948;DHT22;974;52.400;9.818;2023-08-07T10:38:49;16.20;99.90
1948;DHT22;974;52.400;9.818;2023-08-07T10:41:15;16.20;99.90
1948;DHT22;974;52.400;9.818;2023-08-07T10:43:46;16.30;99.90
1948;DHT22;974;52.400;9.818;2023-08-07T10:46:15;16.50;99.90
1948;DHT22;974;52.400;9.818;2023-08-07T10:48:45;16.70;99.90
1948;DHT22;974;52.400;9.818;2023-08-07T10:51:15;16.70;99.90
1948;DHT22;974;52.400;9.818;2023-08-07T10:53:48;16.60;99.90
1948;DHT22;974;52.400;9.818;2023-08-07T10:56:29;16.50;99.90
1948;DHT22;974;52.400;9.818;2023-08-07T10:58:54;16.40;99.90
1948;DHT22;974;52.400;9.818;2023-08-07T11:03:56;16.30;99.90
1948;DHT22;974;52.400;9.818;2023-08-07T11:06:24;16.20;99.90
1948;DHT22;974;52.400;9.818;2023-08-07T11:08:51;16.30;99.90
1948;DHT22;974;52.400;9.818;2023-08-07T11:11:20;16.20;99.90
1948;DHT22;974;52.400;9.818;2023-08-07T11:13:46;16.10;99.90
1948;DHT22;974;52.400;9.818;2023-08-07T11:16:12;16.00;99.90
1948;DHT22;974;52.400;9.818;2023-08-07T11:18:38;16.00;99.90
1948;DHT22;974;52.400;9.818;2023-08-07T11:21:07;16.00;99.90
1948;DHT22;974;52.400;9.818;2023-08-07T11:23:39;15.90;99.90
1948;DHT22;974;52.400;9.818;2023-08-07T11:26:08;15.90;99.90
1948;DHT22;974;52.400;9.818;2023-08-07T11:28:34;16.60;99.90
1948;DHT22;974;52.400;9.818;2023-08-07T11:31:00;17.40;99.90
1948;DHT22;974;52.400;9.818;2023-08-07T11:33:29;17.90;99.90
1948;DHT22;974;52.400;9.818;2023-08-07T11:35:55;18.40;99.90
1948;DHT22;974;52.400;9.818;2023-08-07T11:38:41;18.50;99.90
1948;DHT22;974;52.400;9.818;2023-08-07T11:41:09;18.10;99.90
1948;DHT22;974;52.400;9.818;2023-08-07T11:43:36;17.50;99.90
1948;DHT22;974;52.400;9.818;2023-08-07T11:46:04;17.20;99.90
1948;DHT22;974;52.400;9.818;2023-08-07T11:48:31;17.00;99.90
1948;DHT22;974;52.400;9.818;2023-08-07T11:50:58;17.80;99.90
1948;DHT22;974;52.400;9.818;2023-08-07T11:53:33;18.60;99.90
1948;DHT22;974;52.400;9.818;2023-08-07T11:56:07;22.60;99.90
1948;DHT22;974;52.400;9.818;2023-08-07T11:58:45;25.40;99.90
1948;DHT22;974;52.400;9.818;2023-08-07T12:01:16;27.80;99.90
1948;DHT22;974;52.400;9.818;2023-08-07T12:04:08;28.80;99.90
1948;DHT22;974;52.400;9.818;2023-08-07T12:06:28;29.90;99.90
1948;DHT22;974;52.400;9.818;2023-08-07T12:08:55;30.60;99.90
1948;DHT22;974;52.400;9.818;2023-08-07T12:11:21;31.00;99.90
1948;DHT22;974;52.400;9.818;2023-08-07T12:13:47;29.60;99.90
1948;DHT22;974;52.400;9.818;2023-08-07T12:16:14;26.90;99.90
1948;DHT22;974;52.400;9.818;2023-08-07T12:18:50;24.60;99.90
1948;DHT22;974;52.400;9.818;2023-08-07T12:21:18;22.40;99.90
1948;DHT22;974;52.400;9.818;2023-08-07T12:23:45;20.80;99.90
1948;DHT22;974;52.400;9.818;2023-08-07T12:26:13;20.30;99.90
1948;DHT22;974;52.400;9.818;2023-08-07T12:28:38;19.90;99.90
1948;DHT22;974;52.400;9.818;2023-08-07T12:31:04;19.80;99.90
1948;DHT22;974;52.400;9.818;2023-08-07T12:33:30;19.80;99.90
1948;DHT22;974;52.400;9.818;2023-08-07T12:35:56;20.00;99.90
1948;DHT22;974;52.400;9.818;2023-08-07T12:38:22;19.90;99.90
1948;DHT22;974;52.400;9.818;2023-08-07T12:40:47;19.60;99.90
1948;DHT22;974;52.400;9.818;2023-08-07T12:43:13;19.30;99.90
1948;DHT22;974;52.400;9.818;2023-08-07T12:45:39;19.00;99.90
1948;DHT22;974;52.400;9.818;2023-08-07T12:48:04;18.60;99.90
1948;DHT22;974;52.400;9.818;2023-08-07T12:50:30;18.40;99.90
1948;DHT22;974;52.400;9.818;2023-08-07T12:52:56;18.30;99.90
1948;DHT22;974;52.400;9.818;2023-08-07T12:55:22;18.10;99.90
1948;DHT22;974;52.400;9.818;2023-08-07T12:57:47;18.10;99.90
1948;DHT22;974;52.400;9.818;2023-08-07T13:00:19;18.10;99.90
1948;DHT22;974;52.400;9.818;2023-08-07T13:02:46;18.20;99.90
1948;DHT22;974;52.400;9.818;2023-08-07T13:05:16;18.40;99.90
1948;DHT22;974;52.400;9.818;2023-08-07T13:07:48;18.40;99.90
1948;DHT22;974;52.400;9.818;2023-08-07T13:10:15;18.70;99.90
1948;DHT22;974;52.400;9.818;2023-08-07T13:12:43;18.90;99.90
1948;DHT22;974;52.400;9.818;2023-08-07T13:15:16;19.00;99.90
1948;DHT22;974;52.400;9.818;2023-08-07T13:17:45;19.20;99.90
1948;DHT22;974;52.400;9.818;2023-08-07T13:20:12;19.20;99.90
1948;DHT22;974;52.400;9.818;2023-08-07T13:22:43;19.00;99.90
1948;DHT22;974;52.400;9.818;2023-08-07T13:25:10;18.70;99.90
1948;DHT22;974;52.400;9.818;2023-08-07T13:27:36;18.40;99.90
1948;DHT22;974;52.400;9.818;2023-08-07T13:30:03;18.10;99.90
1948;DHT22;974;52.400;9.818;2023-08-07T13:32:29;17.90;99.90
1948;DHT22;974;52.400;9.818;2023-08-07T13:34:55;17.70;99.90
1948;DHT22;974;52.400;9.818;2023-08-07T13:37:21;17.90;99.90
1948;DHT22;974;52.400;9.818;2023-08-07T13:39:46;17.90;99.90
1948;DHT22;974;52.400;9.818;2023-08-07T13:42:15;18.00;99.90
1948;DHT22;974;52.400;9.818;2023-08-07T13:44:46;18.20;99.90
1948;DHT22;974;52.400;9.818;2023-08-07T13:47:11;18.10;99.90
1948;DHT22;974;52.400;9.818;2023-08-07T13:49:37;18.10;99.90
1948;DHT22;974;52.400;9.818;2023-08-07T13:52:07;18.20;99.90
1948;DHT22;974;52.400;9.818;2023-08-07T13:54:32;18.20;99.90
1948;DHT22;974;52.400;9.818;2023-08-07T13:56:58;18.30;99.90
1948;DHT22;974;52.400;9.818;2023-08-07T13:59:23;18.40;99.90
1948;DHT22;974;52.400;9.818;2023-08-07T14:01:49;18.50;99.90
1948;DHT22;974;52.400;9.818;2023-08-07T14:04:15;18.40;99.90
1948;DHT22;974;52.400;9.818;2023-08-07T14:06:41;18.30;99.90
1948;DHT22;974;52.400;9.818;2023-08-07T14:09:10;18.10;99.90
1948;DHT22;974;52.400;9.818;2023-08-07T14:11:36;18.10;99.90
1948;DHT22;974;52.400;9.818;2023-08-07T14:14:04;18.10;99.90
1948;DHT22;974;52.400;9.818;2023-08-07T14:16:30;18.10;99.90
1948;DHT22;974;52.400;9.818;2023-08-07T14:18:56;18.10;99.90
1948;DHT22;974;52.400;9.818;2023-08-07T14:21:25;18.10;99.90
1948;DHT22;974;52.400;9.818;2023-08-07T14:23:54;18.00;99.90
1948;DHT22;974;52.400;9.818;2023-08-07T14:26:20;17.90;99.90
1948;DHT22;974;52.400;9.818;2023-08-07T14:28:46;17.90;99.90
1948;DHT22;974;52.400;9.818;2023-08-07T14:31:12;17.90;99.90
1948;DHT22;974;52.400;9.818;2023-08-07T14:33:37;17.90;99.90
1948;DHT22;974;52.400;9.818;2023-08-07T14:36:03;18.00;99.90
1948;DHT22;974;52.400;9.818;2023-08-07T14:38:29;18.00;99.90
1948;DHT22;974;52.400;9.818;2023-08-07T14:40:55;18.00;99.90
1948;DHT22;974;52.400;9.818;2023-08-07T14:43:24;17.90;99.90
1948;DHT22;974;52.400;9.818;2023-08-07T14:45:50;17.80;99.90
1948;DHT22;974;52.400;9.818;2023-08-07T14:48:15;17.80;99.90
1948;DHT22;974;52.400;9.818;2023-08-07T14:50:41;17.90;99.90
1948;DHT22;974;52.400;9.818;2023-08-07T14:53:07;17.80;99.90
1948;DHT22;974;52.400;9.818;2023-08-07T14:55:33;17.90;99.90
1948;DHT22;974;52.400;9.818;2023-08-07T14:57:58;17.90;99.90
1948;DHT22;974;52.400;9.818;2023-08-07T15:00:24;17.90;99.90
1948;DHT22;974;52.400;9.818;2023-08-07T15:02:50;17.90;99.90
1948;DHT22;974;52.400;9.818;2023-08-07T15:05:15;17.90;99.90
1948;DHT22;974;52.400;9.818;2023-08-07T15:07:41;17.80;99.90
1948;DHT22;974;52.400;9.818;2023-08-07T15:10:08;17.70;99.90
1948;DHT22;974;52.400;9.818;2023-08-07T15:12:33;17.60;99.90
1948;DHT22;974;52.400;9.818;2023-08-07T15:14:59;17.60;99.90
1948;DHT22;974;52.400;9.818;2023-08-07T15:17:28;17.50;99.90
1948;DHT22;974;52.400;9.818;2023-08-07T15:19:53;17.50;99.90
1948;DHT22;974;52.400;9.818;2023-08-07T15:22:19;17.60;99.90
1948;DHT22;974;52.400;9.818;2023-08-07T15:24:45;17.60;99.90
1948;DHT22;974;52.400;9.818;2023-08-07T15:27:12;17.60;99.90
1948;DHT22;974;52.400;9.818;2023-08-07T15:29:37;17.50;99.90
1948;DHT22;974;52.400;9.818;2023-08-07T15:32:09;17.40;99.90
1948;DHT22;974;52.400;9.818;2023-08-07T15:34:35;17.30;99.90
1948;DHT22;974;52.400;9.818;2023-08-07T15:37:01;17.30;99.90
1948;DHT22;974;52.400;9.818;2023-08-07T15:39:26;17.20;99.90
1948;DHT22;974;52.400;9.818;2023-08-07T15:41:52;17.30;99.90
1948;DHT22;974;52.400;9.818;2023-08-07T15:44:18;17.30;99.90
1948;DHT22;974;52.400;9.818;2023-08-07T15:46:43;17.20;99.90
1948;DHT22;974;52.400;9.818;2023-08-07T15:49:12;17.20;99.90
1948;DHT22;974;52.400;9.818;2023-08-07T15:51:38;17.10;99.90
1948;DHT22;974;52.400;9.818;2023-08-07T15:54:03;17.00;99.90
1948;DHT22;974;52.400;9.818;2023-08-07T15:56:29;17.00;99.90
1948;DHT22;974;52.400;9.818;2023-08-07T15:58:54;17.00;99.90
1948;DHT22;974;52.400;9.818;2023-08-07T16:01:20;17.00;99.90
1948;DHT22;974;52.400;9.818;2023-08-07T16:03:46;17.00;99.90
1948;DHT22;974;52.400;9.818;2023-08-07T16:06:11;17.00;99.90
1948;DHT22;974;52.400;9.818;2023-08-07T16:08:37;17.10;99.90
1948;DHT22;974;52.400;9.818;2023-08-07T16:11:06;17.10;99.90
1948;DHT22;974;52.400;9.818;2023-08-07T16:13:32;17.10;99.90
1948;DHT22;974;52.400;9.818;2023-08-07T16:16:03;17.10;99.90
1948;DHT22;974;52.400;9.818;2023-08-07T16:18:29;17.10;99.90
1948;DHT22;974;52.400;9.818;2023-08-07T16:20:58;17.10;99.90
1948;DHT22;974;52.400;9.818;2023-08-07T16:23:26;17.10;99.90
1948;DHT22;974;52.400;9.818;2023-08-07T16:25:54;17.00;99.90